createdAt,value
2022-09-09T00:03:52.197Z,16.38
2022-09-09T00:09:05.706Z,17.30
2022-09-09T00:14:20.036Z,15.02
2022-09-09T00:19:30.584Z,18.25
2022-09-09T00:24:41.319Z,18.23
2022-09-09T00:29:55.443Z,24.58
2022-09-09T00:35:05.296Z,22.80
2022-09-09T00:40:25.503Z,26.90
2022-09-09T00:46:08.911Z,31.45
2022-09-09T00:51:20.708Z,29.17
2022-09-09T00:56:30.354Z,27.70
2022-09-09T01:01:37.191Z,38.10
2022-09-09T01:06:42.277Z,39.83
2022-09-09T01:12:01.943Z,45.15
2022-09-09T01:17:26.989Z,34.28
2022-09-09T01:22:55.615Z,44.80
2022-09-09T01:28:07.788Z,42.47
2022-09-09T01:33:17.690Z,51.35
2022-09-09T01:43:30.988Z,43.15
2022-09-09T01:48:37.079Z,40.08
2022-09-09T01:53:49.651Z,40.28
2022-09-09T01:59:10.464Z,39.17
2022-09-09T02:04:26.376Z,42.15
2022-09-09T02:09:33.139Z,36.15
2022-09-09T02:14:43.349Z,35.30
2022-09-09T02:19:54.696Z,32.30
2022-09-09T02:25:09.621Z,33.28
2022-09-09T02:30:16.274Z,34.03
2022-09-09T02:35:29.863Z,32.13
2022-09-09T02:40:34.300Z,33.58
2022-09-09T02:45:50.965Z,34.72
2022-09-09T02:51:04.238Z,29.98
2022-09-09T02:56:16.191Z,29.58
2022-09-09T03:01:24.472Z,33.50
2022-09-09T03:06:29.453Z,36.20
2022-09-09T03:11:43.532Z,36.83
2022-09-09T03:16:50.344Z,36.13
2022-09-09T03:21:55.001Z,39.83
2022-09-09T03:26:59.279Z,31.65
2022-09-09T03:32:06.239Z,32.17
2022-09-09T03:37:10.505Z,30.63
2022-09-09T03:42:19.999Z,28.90
2022-09-09T03:47:30.608Z,29.67
2022-09-09T03:52:43.810Z,30.65
2022-09-09T03:57:55.090Z,36.25
2022-09-09T04:03:02.602Z,34.83
2022-09-09T04:08:06.864Z,36.45
2022-09-09T04:13:12.996Z,33.53
2022-09-09T04:18:20.715Z,38.08
2022-09-09T04:23:28.527Z,54.55
2022-09-09T04:28:34.917Z,39.90
2022-09-09T04:33:42.378Z,30.00
2022-09-09T04:38:50.102Z,35.40
2022-09-09T04:43:55.204Z,39.72
2022-09-09T04:49:02.355Z,31.33
2022-09-09T04:54:09.835Z,29.60
2022-09-09T04:59:17.223Z,29.52
2022-09-09T05:04:27.242Z,31.70
2022-09-09T05:09:32.205Z,36.38
2022-09-09T05:14:38.801Z,40.00
2022-09-09T05:19:46.960Z,39.92
2022-09-09T05:24:53.028Z,42.90
2022-09-09T05:29:58.892Z,31.38
2022-09-09T05:35:06.163Z,32.38
2022-09-09T05:40:12.449Z,32.33
2022-09-09T05:45:18.696Z,28.70
2022-09-09T05:50:28.632Z,23.95
2022-09-09T05:55:35.729Z,22.50
2022-09-09T06:00:42.197Z,20.15
2022-09-09T06:05:48.036Z,18.70
2022-09-09T06:10:53.787Z,19.33
2022-09-09T06:15:59.894Z,17.73
2022-09-09T06:21:10.623Z,16.20
2022-09-09T06:26:18.581Z,14.00
2022-09-09T06:31:29.746Z,14.57
2022-09-09T06:36:39.895Z,13.70
2022-09-09T06:41:45.947Z,6.82
2022-09-09T06:47:13.560Z,6.57
2022-09-09T06:52:21.506Z,5.53
2022-09-09T06:57:36.787Z,5.75
2022-09-09T07:02:44.174Z,6.53
2022-09-09T07:07:53.877Z,4.22
2022-09-09T07:13:00.042Z,2.83
2022-09-09T07:18:06.770Z,3.70
2022-09-09T07:23:13.005Z,3.40
2022-09-09T07:28:17.916Z,7.75
2022-09-09T07:33:22.568Z,3.60
2022-09-09T07:38:29.264Z,4.50
2022-09-09T07:43:34.560Z,3.85
2022-09-09T07:48:40.580Z,3.47
2022-09-09T07:53:47.461Z,2.58
2022-09-09T07:58:53.368Z,3.88
2022-09-09T08:04:02.514Z,3.22
2022-09-09T08:09:10.552Z,3.28
2022-09-09T08:14:17.375Z,3.88
2022-09-09T08:19:21.874Z,4.07
2022-09-09T08:24:28.106Z,2.95
2022-09-09T08:29:33.058Z,3.28
2022-09-09T08:34:41.246Z,3.83
2022-09-09T08:39:54.403Z,5.22
2022-09-09T08:45:23.106Z,3.83
2022-09-09T08:50:33.899Z,6.00
2022-09-09T08:55:51.532Z,4.50
2022-09-09T09:01:18.553Z,2.75
2022-09-09T09:06:44.721Z,6.22
2022-09-09T09:11:53.104Z,2.75
2022-09-09T09:17:01.452Z,4.22
2022-09-09T09:22:15.753Z,3.63
2022-09-09T09:27:33.401Z,3.72
2022-09-09T09:32:42.658Z,2.83
2022-09-09T09:43:24.615Z,2.33
2022-09-09T09:48:30.599Z,1.92
2022-09-09T09:53:40.251Z,2.70
2022-09-09T09:58:55.631Z,1.85
2022-09-09T10:04:20.016Z,4.10
2022-09-09T10:09:27.692Z,6.15
2022-09-09T10:14:45.493Z,1.55
2022-09-09T10:20:04.658Z,2.38
2022-09-09T10:25:29.510Z,3.17
2022-09-09T10:30:50.061Z,4.50
2022-09-09T10:36:04.553Z,3.78
2022-09-09T10:41:26.027Z,2.25
2022-09-09T10:46:42.940Z,1.40
2022-09-09T10:51:54.677Z,6.38
2022-09-09T10:57:05.715Z,2.70
2022-09-09T11:02:20.776Z,2.20
2022-09-09T11:07:34.808Z,1.42
2022-09-09T11:12:42.214Z,4.10
2022-09-09T11:17:52.535Z,1.95
2022-09-09T11:23:01.842Z,2.65
2022-09-09T11:28:28.418Z,2.17
2022-09-09T11:34:01.314Z,4.00
2022-09-09T11:39:29.854Z,2.00
2022-09-09T11:44:34.536Z,2.43
2022-09-09T11:49:47.230Z,2.05
2022-09-09T11:54:53.219Z,2.13
2022-09-09T11:59:58.602Z,2.17
2022-09-09T12:05:10.152Z,2.55
2022-09-09T12:10:26.811Z,1.63
2022-09-09T12:15:32.635Z,3.70
2022-09-09T12:20:40.194Z,1.65
2022-09-09T12:25:57.770Z,3.95
2022-09-09T12:31:10.699Z,1.33
2022-09-09T12:36:21.303Z,1.27
2022-09-09T12:41:28.155Z,1.33
2022-09-09T12:46:39.126Z,1.90
2022-09-09T12:51:46.282Z,1.63
2022-09-09T12:56:52.774Z,5.00
2022-09-09T13:02:01.399Z,2.42
2022-09-09T13:07:11.201Z,2.58
2022-09-09T13:12:19.383Z,3.58
2022-09-09T13:17:25.682Z,2.28
2022-09-09T13:22:37.498Z,1.90
2022-09-09T13:27:43.947Z,4.30
2022-09-09T13:32:49.135Z,2.95
2022-09-09T13:37:55.755Z,1.50
2022-09-09T13:43:01.248Z,1.25
2022-09-09T13:48:13.362Z,2.70
2022-09-09T13:53:20.510Z,2.13
2022-09-09T13:58:27.392Z,1.67
2022-09-09T14:03:31.762Z,1.83
2022-09-09T14:08:38.660Z,3.85
2022-09-09T14:13:43.288Z,3.53
2022-09-09T14:18:48.716Z,2.58
2022-09-09T14:23:56.242Z,3.17
2022-09-09T14:29:02.098Z,3.42
2022-09-09T14:34:07.691Z,1.75
2022-09-09T14:39:14.036Z,2.00
2022-09-09T14:44:18.670Z,2.20
2022-09-09T14:49:23.254Z,4.60
2022-09-09T14:54:29.464Z,1.90
2022-09-09T14:59:33.914Z,3.67
2022-09-09T15:04:38.914Z,2.63
2022-09-09T15:09:45.301Z,5.30
2022-09-09T15:14:51.920Z,5.20
2022-09-09T15:19:56.660Z,6.55
2022-09-09T15:25:03.191Z,3.08
2022-09-09T15:30:09.456Z,2.15
2022-09-09T15:35:13.643Z,3.60
2022-09-09T15:40:19.549Z,3.28
2022-09-09T15:45:23.869Z,2.65
2022-09-09T15:50:29.750Z,2.75
2022-09-09T15:55:35.831Z,2.22
2022-09-09T16:00:40.776Z,2.78
2022-09-09T16:05:45.675Z,5.97
2022-09-09T16:10:52.190Z,3.50
2022-09-09T16:15:56.981Z,8.15
2022-09-09T16:21:01.557Z,6.00
2022-09-09T16:26:08.562Z,6.00
2022-09-09T16:31:17.741Z,5.38
2022-09-09T16:36:23.837Z,2.15
2022-09-09T16:41:32.524Z,3.67
2022-09-09T16:46:39.626Z,4.40
2022-09-09T16:51:47.295Z,4.65
2022-09-09T16:56:53.864Z,7.82
2022-09-09T17:01:58.167Z,4.07
2022-09-09T17:07:03.245Z,4.53
2022-09-09T17:12:10.791Z,9.60
2022-09-09T17:17:31.270Z,3.60
2022-09-09T17:22:36.841Z,4.05
2022-09-09T17:27:42.588Z,6.63
2022-09-09T17:32:47.783Z,6.82
2022-09-09T17:37:52.314Z,5.50
2022-09-09T17:43:02.787Z,7.55
2022-09-09T17:48:08.405Z,4.57
2022-09-09T17:53:12.643Z,9.48
2022-09-09T17:58:18.522Z,10.65
2022-09-09T18:03:22.804Z,13.27
2022-09-09T18:08:28.005Z,11.40
2022-09-09T18:13:34.889Z,13.52
2022-09-09T18:18:39.803Z,15.77
2022-09-09T18:23:47.370Z,13.70
2022-09-09T18:28:56.088Z,13.32
2022-09-09T18:34:03.220Z,11.05
2022-09-09T18:46:21.743Z,20.83
2022-09-09T18:51:30.023Z,18.77
2022-09-09T18:56:35.282Z,16.08
2022-09-09T19:01:42.692Z,16.40
2022-09-09T19:06:48.759Z,15.23
2022-09-09T19:11:52.996Z,12.05
2022-09-09T19:16:59.575Z,13.23
2022-09-09T19:22:09.338Z,13.43
2022-09-09T19:37:44.824Z,14.00
2022-09-09T19:42:50.324Z,17.35
2022-09-09T19:47:56.337Z,11.85
2022-09-09T19:53:01.018Z,11.00
2022-09-09T19:58:05.912Z,11.63
2022-09-09T20:03:19.250Z,14.35
2022-09-09T20:08:25.668Z,11.02
2022-09-09T20:13:32.071Z,9.57
2022-09-09T20:18:40.419Z,11.15
2022-09-09T20:23:45.648Z,10.60
2022-09-09T20:28:52.067Z,10.20
2022-09-09T20:33:59.263Z,7.85
2022-09-09T20:39:07.521Z,7.80
2022-09-09T20:44:14.814Z,8.45
2022-09-09T20:49:24.699Z,13.73
2022-09-09T20:54:31.439Z,7.80
2022-09-09T20:59:36.133Z,11.60
2022-09-09T21:04:43.018Z,13.23
2022-09-09T21:09:47.165Z,9.35
2022-09-09T21:14:52.086Z,14.88
2022-09-09T21:19:57.765Z,8.70
2022-09-09T21:25:01.994Z,11.27
2022-09-09T21:30:06.893Z,17.85
2022-09-09T21:35:13.612Z,10.68
2022-09-09T21:40:18.559Z,15.73
2022-09-09T21:45:23.642Z,15.55
2022-09-09T21:50:29.857Z,13.65
2022-09-09T21:55:37.440Z,11.80
2022-09-09T22:00:43.164Z,12.05
2022-09-09T22:05:53.727Z,14.60
2022-09-09T22:10:58.281Z,11.90
2022-09-09T22:16:05.086Z,9.75
2022-09-09T22:21:13.021Z,14.93
2022-09-09T22:26:17.362Z,11.18
2022-09-09T22:31:23.202Z,9.50
2022-09-09T22:36:29.948Z,14.13
2022-09-09T22:41:34.445Z,16.05
2022-09-09T22:46:38.902Z,12.68
2022-09-09T22:51:45.830Z,20.70
2022-09-09T22:56:50.547Z,14.80
2022-09-09T23:01:55.276Z,16.80
2022-09-09T23:07:01.194Z,13.75
2022-09-09T23:12:08.679Z,20.60
2022-09-09T23:17:19.363Z,15.52
2022-09-09T23:22:27.449Z,14.95
2022-09-09T23:27:31.950Z,16.05
2022-09-09T23:32:37.636Z,13.30
2022-09-09T23:37:43.427Z,13.65
2022-09-09T23:42:48.633Z,13.93
2022-09-09T23:47:56.219Z,13.40
2022-09-09T23:53:03.667Z,11.82
2022-09-09T23:58:08.836Z,13.00
